createdAt,value
2023-12-14T00:01:16.122Z,1.20
2023-12-14T00:03:45.705Z,2.40
2023-12-14T00:06:13.552Z,2.40
2023-12-14T00:08:40.941Z,2.40
2023-12-14T00:11:12.889Z,1.80
2023-12-14T00:13:40.859Z,2.40
2023-12-14T00:16:09.286Z,2.80
2023-12-14T00:18:37.524Z,2.00
2023-12-14T00:21:05.209Z,3.20
2023-12-14T00:23:32.621Z,2.00
2023-12-14T00:25:59.904Z,1.00
2023-12-14T00:28:29.570Z,1.40
2023-12-14T00:30:58.811Z,1.60
2023-12-14T00:33:26.106Z,1.40
2023-12-14T00:35:53.324Z,2.00
2023-12-14T00:38:20.680Z,2.00
2023-12-14T00:40:47.933Z,1.00
2023-12-14T00:43:15.136Z,2.00
2023-12-14T00:45:42.896Z,2.00
2023-12-14T00:48:10.162Z,1.40
2023-12-14T00:50:37.395Z,2.00
2023-12-14T00:53:04.715Z,1.80
2023-12-14T00:55:31.907Z,2.00
2023-12-14T00:57:59.195Z,2.00
2023-12-14T01:00:26.433Z,4.20
2023-12-14T01:02:53.582Z,0.00
2023-12-14T01:05:20.810Z,4.80
2023-12-14T01:07:48.203Z,3.20
2023-12-14T01:10:15.510Z,3.60
2023-12-14T01:12:42.551Z,3.20
2023-12-14T01:15:10.438Z,3.60
2023-12-14T01:17:39.139Z,3.20
2023-12-14T01:20:10.480Z,2.80
2023-12-14T01:22:38.385Z,3.20
2023-12-14T01:25:05.995Z,2.00
2023-12-14T01:27:33.138Z,1.80
2023-12-14T01:30:00.651Z,0.00
2023-12-14T01:32:27.991Z,1.80
2023-12-14T01:34:55.325Z,1.60
2023-12-14T01:37:22.540Z,1.60
2023-12-14T01:39:49.616Z,3.20
2023-12-14T01:42:16.758Z,4.00
2023-12-14T01:44:43.909Z,1.60
2023-12-14T01:47:11.435Z,4.20
2023-12-14T01:49:38.588Z,2.00
2023-12-14T01:52:06.162Z,2.00
2023-12-14T01:54:33.262Z,2.00
2023-12-14T01:57:00.573Z,2.00
2023-12-14T01:59:27.906Z,2.20
2023-12-14T02:01:58.071Z,1.00
2023-12-14T02:04:29.265Z,0.80
2023-12-14T02:06:56.566Z,0.20
2023-12-14T02:09:23.614Z,2.80
2023-12-14T02:11:51.014Z,2.00
2023-12-14T02:14:18.236Z,2.00
2023-12-14T02:16:45.426Z,2.40
2023-12-14T02:19:12.808Z,4.00
2023-12-14T02:21:40.157Z,4.80
2023-12-14T02:24:07.258Z,5.00
2023-12-14T02:26:34.561Z,2.40
2023-12-14T02:29:01.780Z,3.20
2023-12-14T02:31:28.950Z,4.00
2023-12-14T02:33:56.101Z,5.00
2023-12-14T02:36:23.290Z,2.00
2023-12-14T02:38:50.495Z,1.00
2023-12-14T02:41:18.156Z,1.00
2023-12-14T02:43:45.398Z,2.00
2023-12-14T02:46:14.859Z,0.00
2023-12-14T02:48:46.663Z,0.40
2023-12-14T02:51:15.303Z,2.00
2023-12-14T02:53:42.839Z,1.00
2023-12-14T02:56:12.362Z,1.00
2023-12-14T02:58:39.766Z,1.00
2023-12-14T03:01:07.117Z,1.20
2023-12-14T03:03:34.570Z,0.80
2023-12-14T03:06:01.713Z,1.00
2023-12-14T03:08:28.897Z,1.00
2023-12-14T03:10:56.186Z,0.80
2023-12-14T03:13:23.380Z,1.00
2023-12-14T03:15:50.640Z,1.40
2023-12-14T03:18:18.016Z,1.00
2023-12-14T03:20:45.144Z,1.00
2023-12-14T03:23:12.322Z,1.40
2023-12-14T03:25:39.376Z,1.00
2023-12-14T03:28:06.538Z,0.60
2023-12-14T03:30:33.712Z,1.20
2023-12-14T03:33:01.092Z,1.80
2023-12-14T03:35:28.283Z,1.00
2023-12-14T03:37:55.451Z,0.00
2023-12-14T03:40:22.540Z,1.00
2023-12-14T03:42:50.078Z,0.00
2023-12-14T03:45:17.191Z,1.20
2023-12-14T03:47:44.593Z,1.00
2023-12-14T03:50:14.869Z,0.60
2023-12-14T03:52:42.342Z,0.00
2023-12-14T03:55:10.155Z,0.00
2023-12-14T03:57:37.439Z,1.00
2023-12-14T04:00:05.062Z,1.20
2023-12-14T04:02:32.393Z,0.60
2023-12-14T04:04:59.781Z,1.00
2023-12-14T04:07:27.056Z,0.20
2023-12-14T04:09:54.172Z,0.00
2023-12-14T04:12:21.424Z,0.00
2023-12-14T04:14:48.565Z,0.80
2023-12-14T04:17:15.733Z,0.00
2023-12-14T04:19:43.308Z,0.00
2023-12-14T04:22:10.384Z,0.40
2023-12-14T04:24:37.554Z,1.00
2023-12-14T04:27:04.874Z,1.00
2023-12-14T04:29:32.021Z,2.00
2023-12-14T04:31:59.115Z,1.20
2023-12-14T04:34:26.294Z,1.40
2023-12-14T04:36:54.238Z,1.40
2023-12-14T04:39:21.356Z,1.00
2023-12-14T04:41:48.592Z,1.80
2023-12-14T04:44:15.752Z,2.00
2023-12-14T04:46:42.804Z,0.20
2023-12-14T04:49:10.211Z,1.00
2023-12-14T04:51:37.324Z,0.00
2023-12-14T04:54:05.468Z,1.00
2023-12-14T04:56:33.017Z,1.00
2023-12-14T04:59:00.157Z,1.00
2023-12-14T05:01:33.166Z,1.00
2023-12-14T05:04:01.777Z,1.00
2023-12-14T05:06:29.162Z,0.00
2023-12-14T05:08:57.022Z,1.80
2023-12-14T05:11:24.277Z,1.20
2023-12-14T05:13:51.601Z,0.80
2023-12-14T05:16:18.746Z,1.20
2023-12-14T05:18:46.125Z,3.60
2023-12-14T05:21:19.213Z,4.60
2023-12-14T05:23:46.684Z,2.00
2023-12-14T05:26:13.793Z,3.20
2023-12-14T05:28:41.111Z,4.40
2023-12-14T05:31:08.457Z,2.00
2023-12-14T05:33:39.652Z,2.00
2023-12-14T05:36:10.072Z,2.00
2023-12-14T05:38:40.214Z,2.00
2023-12-14T05:41:07.633Z,1.60
2023-12-14T05:43:35.131Z,2.00
2023-12-14T05:46:02.297Z,2.00
2023-12-14T05:48:29.865Z,2.00
2023-12-14T05:50:58.107Z,1.20
2023-12-14T05:53:25.479Z,4.00
2023-12-14T05:55:52.686Z,7.00
2023-12-14T05:58:20.228Z,4.00
2023-12-14T06:00:47.479Z,2.40
2023-12-14T06:03:14.593Z,4.00
2023-12-14T06:05:42.002Z,4.20
2023-12-14T06:08:09.201Z,2.40
2023-12-14T06:10:36.486Z,7.00
2023-12-14T06:13:03.571Z,4.20
2023-12-14T06:15:30.725Z,6.20
2023-12-14T06:17:57.829Z,6.40
2023-12-14T06:20:25.192Z,4.00
2023-12-14T06:22:52.340Z,4.00
2023-12-14T06:25:19.377Z,2.00
2023-12-14T06:27:46.688Z,4.00
2023-12-14T06:30:14.107Z,2.00
2023-12-14T06:32:41.849Z,1.80
2023-12-14T06:35:09.502Z,2.00
2023-12-14T06:37:36.928Z,4.00
2023-12-14T06:40:04.592Z,4.00
2023-12-14T06:42:32.754Z,3.40
2023-12-14T06:45:02.042Z,2.80
2023-12-14T06:47:29.268Z,2.00
2023-12-14T06:49:58.844Z,2.00
2023-12-14T06:52:26.034Z,1.20
2023-12-14T06:54:53.352Z,4.60
2023-12-14T06:57:20.572Z,2.40
2023-12-14T06:59:48.862Z,3.20
2023-12-14T07:02:16.073Z,2.80
2023-12-14T07:04:43.367Z,2.40
2023-12-14T07:07:10.631Z,5.60
2023-12-14T07:09:38.002Z,5.00
2023-12-14T07:12:05.810Z,6.60
2023-12-14T07:14:32.973Z,4.00
2023-12-14T07:17:00.170Z,3.60
2023-12-14T07:19:27.270Z,4.80
2023-12-14T07:21:54.597Z,4.60
2023-12-14T07:24:21.879Z,3.60
2023-12-14T07:26:48.979Z,6.40
2023-12-14T07:29:16.258Z,1.00
2023-12-14T07:31:43.438Z,4.20
2023-12-14T07:34:10.755Z,4.40
2023-12-14T07:36:38.628Z,1.20
2023-12-14T07:39:07.293Z,2.00
2023-12-14T07:41:34.670Z,4.80
2023-12-14T07:44:05.516Z,4.60
2023-12-14T07:46:33.993Z,2.40
2023-12-14T07:49:04.414Z,6.80
2023-12-14T07:51:31.677Z,8.00
2023-12-14T07:53:58.831Z,8.20
2023-12-14T07:56:28.851Z,11.60
2023-12-14T07:58:56.385Z,11.00
2023-12-14T08:01:23.669Z,5.80
2023-12-14T08:03:51.057Z,7.20
2023-12-14T08:06:18.212Z,8.00
2023-12-14T08:08:45.517Z,4.00
2023-12-14T08:11:12.672Z,2.00
2023-12-14T08:13:41.482Z,4.00
2023-12-14T08:16:13.091Z,5.00
2023-12-14T08:18:40.384Z,6.00
2023-12-14T08:21:08.971Z,5.80
2023-12-14T08:23:37.628Z,2.80
2023-12-14T08:26:05.051Z,4.20
2023-12-14T08:28:32.340Z,4.40
2023-12-14T08:31:00.491Z,5.00
2023-12-14T08:33:28.198Z,4.20
2023-12-14T08:35:55.271Z,2.00
2023-12-14T08:38:22.467Z,9.60
2023-12-14T08:40:49.822Z,8.80
2023-12-14T08:43:17.115Z,16.20
2023-12-14T08:45:44.636Z,9.80
2023-12-14T08:48:11.996Z,3.60
2023-12-14T08:50:39.107Z,12.40
2023-12-14T08:53:07.464Z,16.00
2023-12-14T08:55:34.611Z,22.80
2023-12-14T08:58:02.231Z,29.80
2023-12-14T09:00:29.421Z,23.20
2023-12-14T09:02:56.764Z,23.40
2023-12-14T09:05:24.106Z,29.40
2023-12-14T09:07:54.220Z,35.40
2023-12-14T09:10:21.459Z,29.40
2023-12-14T09:12:48.507Z,31.00
2023-12-14T09:15:17.390Z,27.80
2023-12-14T09:17:44.979Z,32.20
2023-12-14T09:20:13.131Z,27.60
2023-12-14T09:22:40.390Z,29.00
2023-12-14T09:25:08.926Z,24.80
2023-12-14T09:27:36.513Z,22.60
2023-12-14T09:30:05.220Z,24.40
2023-12-14T09:32:32.777Z,23.80
2023-12-14T09:35:00.465Z,21.60
2023-12-14T09:37:27.921Z,17.40
2023-12-14T09:39:55.166Z,17.20
2023-12-14T09:42:23.019Z,19.20
2023-12-14T09:44:51.010Z,20.20
2023-12-14T09:47:18.159Z,17.80
2023-12-14T09:49:47.095Z,10.40
2023-12-14T09:52:14.190Z,13.20
2023-12-14T09:54:42.167Z,14.20
2023-12-14T09:57:09.327Z,14.00
2023-12-14T09:59:36.447Z,12.20
2023-12-14T10:02:14.141Z,10.60
2023-12-14T10:04:41.492Z,11.20
2023-12-14T10:07:09.026Z,7.60
2023-12-14T10:09:38.640Z,7.60
2023-12-14T10:12:10.991Z,8.80
2023-12-14T10:14:39.002Z,14.80
2023-12-14T10:17:20.113Z,12.20
2023-12-14T10:19:49.093Z,18.80
2023-12-14T10:22:19.469Z,16.20
2023-12-14T10:24:48.371Z,19.20
2023-12-14T10:27:17.550Z,15.80
2023-12-14T10:29:47.290Z,19.60
2023-12-14T10:32:15.692Z,13.60
2023-12-14T10:34:43.444Z,19.60
2023-12-14T10:37:11.678Z,17.80
2023-12-14T10:39:43.419Z,13.00
2023-12-14T10:42:17.967Z,11.60
2023-12-14T10:45:06.804Z,16.00
2023-12-14T10:47:40.057Z,15.00
2023-12-14T10:50:08.220Z,13.00
2023-12-14T10:52:37.023Z,10.80
2023-12-14T10:55:08.137Z,11.40
2023-12-14T10:57:36.311Z,13.40
2023-12-14T11:00:06.380Z,11.00
2023-12-14T11:02:41.674Z,8.20
2023-12-14T11:05:11.284Z,8.60
2023-12-14T11:07:48.041Z,7.00
2023-12-14T11:10:16.090Z,9.40
2023-12-14T11:12:56.190Z,8.00
2023-12-14T11:15:24.315Z,8.60
2023-12-14T11:18:10.334Z,7.80
2023-12-14T11:20:47.099Z,16.40
2023-12-14T11:23:15.551Z,16.00
2023-12-14T11:25:46.329Z,11.60
2023-12-14T11:28:15.349Z,13.60
2023-12-14T11:30:54.366Z,7.40
2023-12-14T11:33:23.521Z,6.60
2023-12-14T11:35:52.816Z,7.00
2023-12-14T11:38:22.792Z,4.00
2023-12-14T11:40:51.674Z,3.00
2023-12-14T11:43:22.294Z,3.00
2023-12-14T11:45:50.474Z,2.20
2023-12-14T11:48:18.238Z,3.40
2023-12-14T11:50:45.876Z,5.20
2023-12-14T11:53:13.719Z,3.00
2023-12-14T11:55:42.485Z,4.40
2023-12-14T11:58:10.146Z,3.00
2023-12-14T12:00:39.444Z,2.40
2023-12-14T12:03:22.418Z,3.20
2023-12-14T12:05:51.690Z,2.40
2023-12-14T12:08:20.904Z,2.00
2023-12-14T12:10:49.472Z,3.20
2023-12-14T12:13:23.044Z,1.80
2023-12-14T12:15:50.263Z,6.40
2023-12-14T12:18:18.873Z,2.80
2023-12-14T12:20:46.446Z,4.80
2023-12-14T12:23:13.745Z,8.00
2023-12-14T12:25:41.173Z,9.40
2023-12-14T12:28:08.573Z,13.40
2023-12-14T12:30:38.245Z,17.00
2023-12-14T12:33:07.719Z,14.20
2023-12-14T12:35:35.606Z,12.40
2023-12-14T12:38:03.410Z,8.80
2023-12-14T12:40:32.490Z,8.20
2023-12-14T12:43:00.038Z,10.80
2023-12-14T12:45:29.631Z,12.20
2023-12-14T12:47:57.645Z,2.20
2023-12-14T12:50:25.114Z,11.00
2023-12-14T12:52:52.941Z,14.00
2023-12-14T12:55:20.554Z,14.20
2023-12-14T12:57:48.569Z,10.80
2023-12-14T13:00:16.635Z,9.20
2023-12-14T13:02:45.152Z,8.40
2023-12-14T13:05:16.445Z,14.40
2023-12-14T13:07:47.307Z,9.00
2023-12-14T13:10:25.312Z,8.60
2023-12-14T13:12:58.519Z,11.80
2023-12-14T13:15:27.279Z,4.40
2023-12-14T13:17:55.167Z,7.20
2023-12-14T13:20:23.043Z,5.60
2023-12-14T13:22:50.953Z,4.60
2023-12-14T13:25:18.440Z,2.80
2023-12-14T13:27:45.837Z,4.20
2023-12-14T13:30:19.092Z,4.80
2023-12-14T13:32:47.419Z,2.80
2023-12-14T13:35:14.813Z,3.20
2023-12-14T13:37:43.224Z,3.80
2023-12-14T13:40:13.990Z,2.00
2023-12-14T13:42:50.856Z,2.00
2023-12-14T13:45:29.331Z,2.00
2023-12-14T13:47:56.642Z,3.40
2023-12-14T13:50:24.224Z,1.60
2023-12-14T13:52:51.369Z,2.00
2023-12-14T13:55:18.527Z,2.00
2023-12-14T13:57:45.621Z,1.00
2023-12-14T14:00:13.490Z,1.00
2023-12-14T14:02:40.581Z,1.80
2023-12-14T14:05:07.972Z,1.00
2023-12-14T14:07:35.780Z,1.40
2023-12-14T14:10:03.181Z,0.00
2023-12-14T14:12:30.222Z,0.00
2023-12-14T14:15:00.013Z,0.00
2023-12-14T14:17:27.258Z,1.00
2023-12-14T14:19:54.467Z,0.60
2023-12-14T14:22:24.949Z,0.20
2023-12-14T14:24:52.938Z,1.00
2023-12-14T14:27:20.209Z,0.80
2023-12-14T14:29:47.514Z,0.40
2023-12-14T14:32:15.400Z,1.00
2023-12-14T14:34:42.847Z,0.40
2023-12-14T14:37:10.190Z,2.00
2023-12-14T14:39:40.824Z,1.00
2023-12-14T14:42:09.209Z,1.80
2023-12-14T14:44:36.572Z,0.80
2023-12-14T14:47:04.818Z,1.60
2023-12-14T14:49:32.186Z,2.00
2023-12-14T14:51:59.331Z,1.00
2023-12-14T14:54:26.914Z,2.40
2023-12-14T14:56:54.472Z,0.60
2023-12-14T14:59:21.512Z,1.00
2023-12-14T15:01:49.298Z,0.00
2023-12-14T15:04:16.474Z,0.00
2023-12-14T15:06:43.736Z,1.00
2023-12-14T15:09:11.198Z,0.40
2023-12-14T15:11:38.323Z,0.00
2023-12-14T15:14:05.536Z,0.00
2023-12-14T15:16:32.758Z,0.80
2023-12-14T15:18:59.789Z,1.00
2023-12-14T15:21:26.976Z,0.40
2023-12-14T15:23:55.554Z,0.80
2023-12-14T15:26:23.315Z,0.60
2023-12-14T15:28:50.448Z,0.80
2023-12-14T15:31:17.747Z,0.00
2023-12-14T15:33:44.900Z,1.60
2023-12-14T15:36:12.160Z,0.00
2023-12-14T15:38:41.803Z,0.00
2023-12-14T15:41:09.116Z,0.00
2023-12-14T15:43:36.349Z,0.00
2023-12-14T15:46:03.617Z,0.40
2023-12-14T15:48:31.176Z,0.00
2023-12-14T15:50:58.415Z,0.60
2023-12-14T15:53:25.591Z,0.40
2023-12-14T15:55:53.038Z,1.00
2023-12-14T15:58:20.154Z,1.00
2023-12-14T16:00:47.335Z,1.00
2023-12-14T16:03:14.429Z,0.00
2023-12-14T16:05:41.805Z,0.00
2023-12-14T16:08:12.721Z,0.00
2023-12-14T16:10:40.253Z,1.00
2023-12-14T16:13:07.366Z,0.00
2023-12-14T16:15:35.251Z,0.00
2023-12-14T16:18:02.455Z,1.00
2023-12-14T16:20:29.719Z,0.00
2023-12-14T16:22:57.331Z,0.00
2023-12-14T16:25:24.501Z,0.00
2023-12-14T16:27:51.655Z,0.80
2023-12-14T16:30:19.257Z,1.00
2023-12-14T16:32:46.523Z,0.60
2023-12-14T16:35:15.372Z,1.00
2023-12-14T16:37:42.596Z,0.00
2023-12-14T16:40:10.173Z,1.00
2023-12-14T16:42:37.644Z,1.00
2023-12-14T16:45:06.350Z,1.00
2023-12-14T16:47:33.557Z,1.80
2023-12-14T16:50:00.876Z,1.00
2023-12-14T16:52:28.077Z,1.20
2023-12-14T16:54:56.021Z,0.40
2023-12-14T16:57:23.106Z,0.60
2023-12-14T16:59:50.127Z,1.00
2023-12-14T17:02:17.761Z,1.80
2023-12-14T17:04:45.343Z,1.00
2023-12-14T17:07:12.638Z,1.00
2023-12-14T17:09:39.877Z,1.00
2023-12-14T17:12:07.335Z,1.00
2023-12-14T17:14:34.507Z,2.00
2023-12-14T17:17:03.971Z,1.40
2023-12-14T17:19:31.671Z,1.40
2023-12-14T17:21:58.726Z,2.00
2023-12-14T17:24:26.042Z,2.00
2023-12-14T17:26:53.051Z,1.00
2023-12-14T17:29:20.210Z,1.00
2023-12-14T17:31:47.517Z,0.80
2023-12-14T17:34:14.829Z,2.40
2023-12-14T17:36:42.158Z,1.60
2023-12-14T17:39:09.588Z,1.00
2023-12-14T17:41:36.613Z,1.40
2023-12-14T17:44:04.242Z,1.80
2023-12-14T17:46:31.354Z,3.80
2023-12-14T17:48:59.355Z,3.00
2023-12-14T17:51:29.158Z,2.20
2023-12-14T17:53:56.492Z,2.00
2023-12-14T17:56:24.333Z,2.00
2023-12-14T17:58:51.482Z,5.80
2023-12-14T18:01:18.825Z,2.60
2023-12-14T18:03:46.516Z,3.00
2023-12-14T18:06:13.919Z,4.20
2023-12-14T18:08:41.546Z,3.40
2023-12-14T18:11:08.823Z,2.40
2023-12-14T18:13:36.103Z,6.00
2023-12-14T18:16:03.965Z,6.80
2023-12-14T18:18:31.274Z,3.40
2023-12-14T18:20:58.435Z,5.60
2023-12-14T18:23:25.625Z,6.80
2023-12-14T18:25:52.914Z,4.60
2023-12-14T18:28:20.325Z,7.60
2023-12-14T18:30:47.575Z,6.20
2023-12-14T18:33:15.117Z,5.20
2023-12-14T18:35:42.292Z,4.80
2023-12-14T18:38:09.724Z,6.00
2023-12-14T18:40:37.342Z,2.20
2023-12-14T18:43:04.511Z,6.60
2023-12-14T18:45:31.534Z,8.00
2023-12-14T18:47:59.117Z,8.20
2023-12-14T18:50:26.590Z,6.00
2023-12-14T18:52:58.208Z,5.00
2023-12-14T18:55:25.939Z,5.00
2023-12-14T18:57:53.713Z,2.00
2023-12-14T19:00:23.400Z,6.60
2023-12-14T19:02:50.612Z,3.80
2023-12-14T19:05:22.226Z,5.00
2023-12-14T19:07:49.430Z,2.00
2023-12-14T19:10:16.703Z,5.00
2023-12-14T19:12:43.887Z,5.00
2023-12-14T19:15:11.243Z,1.60
2023-12-14T19:17:39.624Z,5.00
2023-12-14T19:20:11.121Z,2.00
2023-12-14T19:22:41.858Z,2.80
2023-12-14T19:25:11.494Z,2.80
2023-12-14T19:27:40.070Z,2.20
2023-12-14T19:30:09.297Z,3.40
2023-12-14T19:32:37.486Z,2.80
2023-12-14T19:35:05.164Z,2.00
2023-12-14T19:37:32.924Z,2.80
2023-12-14T19:40:02.304Z,8.40
2023-12-14T19:42:32.064Z,7.00
2023-12-14T19:45:02.712Z,6.40
2023-12-14T19:47:30.069Z,1.60
2023-12-14T19:50:01.317Z,4.60
2023-12-14T19:52:29.835Z,3.00
2023-12-14T19:54:57.822Z,1.00
2023-12-14T19:57:26.610Z,1.00
2023-12-14T19:59:54.014Z,1.80
2023-12-14T20:02:22.222Z,1.00
2023-12-14T20:04:49.385Z,1.00
2023-12-14T20:07:16.689Z,0.80
2023-12-14T20:09:54.052Z,2.00
2023-12-14T20:12:25.487Z,1.60
2023-12-14T20:14:52.597Z,0.00
2023-12-14T20:17:19.912Z,0.80
2023-12-14T20:19:47.201Z,2.00
2023-12-14T20:22:15.056Z,1.00
2023-12-14T20:24:44.016Z,2.40
2023-12-14T20:27:11.095Z,1.00
2023-12-14T20:29:38.421Z,1.20
2023-12-14T20:32:06.091Z,1.40
2023-12-14T20:34:33.290Z,1.80
2023-12-14T20:37:00.839Z,3.40
2023-12-14T20:39:28.082Z,5.00
2023-12-14T20:41:55.236Z,3.80
2023-12-14T20:44:22.752Z,2.00
2023-12-14T20:46:49.956Z,1.80
2023-12-14T20:49:17.201Z,1.00
2023-12-14T20:51:44.653Z,2.00
2023-12-14T20:54:11.916Z,1.80
2023-12-14T20:56:39.283Z,2.20
2023-12-14T20:59:06.721Z,2.40
2023-12-14T21:01:34.575Z,5.40
2023-12-14T21:04:01.795Z,5.20
2023-12-14T21:06:30.982Z,2.80
2023-12-14T21:08:59.887Z,2.00
2023-12-14T21:11:27.135Z,1.60
2023-12-14T21:13:55.041Z,2.00
2023-12-14T21:16:22.372Z,2.80
2023-12-14T21:18:49.633Z,1.00
2023-12-14T21:21:17.006Z,0.60
2023-12-14T21:23:44.180Z,2.00
2023-12-14T21:26:13.731Z,3.00
2023-12-14T21:28:40.932Z,2.60
2023-12-14T21:31:08.400Z,1.00
2023-12-14T21:33:35.816Z,0.00
2023-12-14T21:36:03.595Z,1.20
2023-12-14T21:38:33.477Z,0.00
2023-12-14T21:41:00.868Z,1.20
2023-12-14T21:43:28.408Z,1.00
2023-12-14T21:45:55.667Z,0.60
2023-12-14T21:48:23.424Z,0.00
2023-12-14T21:50:50.693Z,1.00
2023-12-14T21:53:18.199Z,0.60
2023-12-14T21:55:45.346Z,1.00
2023-12-14T21:58:12.493Z,0.00
2023-12-14T22:00:39.673Z,1.00
2023-12-14T22:03:06.841Z,1.00
2023-12-14T22:05:34.307Z,0.40
2023-12-14T22:08:01.752Z,1.00
2023-12-14T22:10:28.906Z,1.60
2023-12-14T22:12:58.298Z,1.00
2023-12-14T22:15:25.968Z,1.00
2023-12-14T22:17:53.204Z,1.20
2023-12-14T22:20:20.495Z,0.60
2023-12-14T22:22:47.736Z,2.20
2023-12-14T22:25:15.008Z,1.40
2023-12-14T22:27:42.160Z,1.00
2023-12-14T22:30:09.941Z,1.00
2023-12-14T22:32:37.357Z,1.80
2023-12-14T22:35:04.834Z,2.00
2023-12-14T22:37:32.035Z,2.40
2023-12-14T22:39:59.106Z,2.60
2023-12-14T22:42:26.255Z,3.00
2023-12-14T22:44:53.523Z,2.00
2023-12-14T22:47:20.648Z,1.60
2023-12-14T22:49:47.883Z,1.00
2023-12-14T22:52:15.154Z,1.00
2023-12-14T22:54:42.297Z,1.00
2023-12-14T22:57:09.453Z,2.00
2023-12-14T22:59:42.384Z,1.20
2023-12-14T23:02:09.693Z,1.00
2023-12-14T23:04:37.857Z,0.40
2023-12-14T23:07:05.464Z,1.20
2023-12-14T23:09:32.593Z,0.40
2023-12-14T23:12:00.496Z,0.20
2023-12-14T23:14:28.206Z,0.60
2023-12-14T23:16:57.161Z,0.40
2023-12-14T23:19:24.435Z,0.00
2023-12-14T23:21:51.779Z,0.00
2023-12-14T23:24:19.041Z,0.00
2023-12-14T23:26:46.327Z,0.60
2023-12-14T23:29:13.774Z,0.20
2023-12-14T23:31:41.038Z,0.80
2023-12-14T23:34:08.273Z,0.00
2023-12-14T23:36:35.656Z,0.00
2023-12-14T23:39:03.931Z,0.00
2023-12-14T23:41:31.290Z,0.00
2023-12-14T23:44:00.777Z,0.00
2023-12-14T23:46:28.447Z,0.00
2023-12-14T23:48:55.866Z,0.00
2023-12-14T23:51:23.496Z,0.00
2023-12-14T23:53:50.716Z,0.00
2023-12-14T23:56:17.981Z,0.00
2023-12-14T23:58:45.576Z,1.80
